Авиационная погода в Актау

СКИДКИ НА СМАРТФОНЫ!

Регион: 
Погода METAR: 
UATE 091530Z 31005MPS 270V340 CAVOK 26/15 Q1012 NOSIG RMK QFE758/1010
Время наблюдения
2022-08-09T15:30:00Z
Температура C
26.0
Точка росы
15.0
Направление ветра
310
Скорость ветра (узлы)
10
Метео видимость
6.21
Облачность
CAVOK
Нижняя граница облачности (футы)
Явления погоды
Условия полета
VFR
Аэропорт подробнее: 

Скидки на навигаторы!